Time;durP1;ratioP1;P1;durP2;ratioP2;P2;SDS_P1;SDS_P2;PMS_P1;PMS_P2;Temp;Humidity;BMP_temperature;BMP_pressure;BME280_temperature;BME280_humidity;BME280_pressure;Samples;Min_cycle;Max_cycle;Signal;HPM_P1;HPM_P2
2022/07/19 00:02:11;;;;;;;4.33;2.50;;;;;;;12.03;100.00;101338.19;1705597;83;21013;-40
2022/07/19 00:04:38;;;;;;;7.47;2.30;;;;;;;11.96;100.00;101338.65;1705552;84;21510;-41
2022/07/19 00:07:05;;;;;;;2.55;2.35;;;;;;;11.90;100.00;101338.72;1705746;83;20901;-40
2022/07/19 00:09:33;;;;;;;5.20;2.02;;;;;;;11.86;100.00;101344.37;1708909;83;21225;-40
2022/07/19 00:12:00;;;;;;;4.83;2.35;;;;;;;11.81;100.00;101342.26;1712238;83;20980;-40
2022/07/19 00:14:28;;;;;;;4.42;2.15;;;;;;;11.77;100.00;101343.16;1712314;83;20952;-40
2022/07/19 00:16:56;;;;;;;3.25;2.20;;;;;;;11.74;100.00;101344.50;1712419;83;21514;-40
2022/07/19 00:19:23;;;;;;;2.22;1.90;;;;;;;11.73;100.00;101347.97;1709547;83;20916;-40
2022/07/19 00:21:49;;;;;;;5.75;2.27;;;;;;;11.73;100.00;101348.81;1705951;83;21136;-40
2022/07/19 00:24:16;;;;;;;7.25;2.15;;;;;;;11.81;100.00;101348.74;1706765;83;21498;-41
2022/07/19 00:26:43;;;;;;;4.90;2.02;;;;;;;11.87;100.00;101343.52;1728595;82;20916;-40
2022/07/19 00:29:10;;;;;;;2.12;2.00;;;;;;;11.86;100.00;101342.23;1734492;82;21006;-40
2022/07/19 00:31:38;;;;;;;2.80;2.00;;;;;;;11.82;100.00;101340.09;1748773;82;20959;-40
2022/07/19 00:34:05;;;;;;;2.60;1.82;;;;;;;11.74;100.00;101352.28;1749036;82;21535;-40
2022/07/19 00:36:33;;;;;;;4.92;1.92;;;;;;;11.67;100.00;101347.57;1748806;82;21532;-40
2022/07/19 00:39:00;;;;;;;2.10;1.90;;;;;;;11.60;100.00;101346.76;1744555;82;21012;-40
2022/07/19 00:41:27;;;;;;;6.78;2.17;;;;;;;11.50;100.00;101344.70;1728788;81;20971;-40
2022/07/19 00:43:56;;;;;;;6.17;1.72;;;;;;;11.41;100.00;101347.35;1728752;82;20932;-40
2022/07/19 00:46:23;;;;;;;2.12;1.92;;;;;;;11.30;100.00;101354.36;1710339;83;22361;-40
2022/07/19 00:48:50;;;;;;;2.65;1.90;;;;;;;11.19;100.00;101348.80;1731448;82;21533;-40
2022/07/19 00:51:17;;;;;;;3.87;2.15;;;;;;;11.09;100.00;101348.45;1748880;82;20963;-40
2022/07/19 00:53:44;;;;;;;4.40;1.92;;;;;;;11.04;100.00;101351.51;1749110;82;21058;-40
2022/07/19 00:56:12;;;;;;;2.02;1.80;;;;;;;10.97;100.00;101349.80;1718811;82;21450;-40
2022/07/19 00:58:41;;;;;;;2.95;1.90;;;;;;;10.90;100.00;101352.88;1744436;82;21151;-40
2022/07/19 01:01:09;;;;;;;3.25;2.12;;;;;;;10.83;100.00;101348.16;1728805;83;20944;-40
2022/07/19 01:03:40;;;;;;;2.90;2.05;;;;;;;10.76;100.00;101344.73;1729008;82;20944;-40
2022/07/19 01:06:08;;;;;;;3.37;2.08;;;;;;;10.72;100.00;101351.22;1730346;82;20924;-40
2022/07/19 01:08:36;;;;;;;8.58;2.22;;;;;;;10.66;100.00;101349.55;1729069;83;20923;-40
2022/07/19 01:11:05;;;;;;;7.72;2.45;;;;;;;10.62;100.00;101355.16;1729186;83;21250;-40
2022/07/19 01:13:33;;;;;;;3.22;2.52;;;;;;;10.60;100.00;101353.02;1728924;82;21003;-40
2022/07/19 01:16:00;;;;;;;7.55;2.50;;;;;;;10.61;100.00;101352.15;1743930;82;21503;-40
2022/07/19 01:18:27;;;;;;;8.40;2.70;;;;;;;10.65;100.00;101349.12;1719951;82;21033;-40
2022/07/19 01:20:54;;;;;;;7.05;3.05;;;;;;;10.71;100.00;101352.09;1749166;82;20987;-40
2022/07/19 01:23:22;;;;;;;2.90;2.67;;;;;;;10.74;100.00;101347.77;1748928;82;21541;-41
2022/07/19 01:25:49;;;;;;;4.60;2.80;;;;;;;10.78;100.00;101348.63;1712787;83;20983;-40
2022/07/19 01:28:15;;;;;;;3.70;3.00;;;;;;;10.83;100.00;101351.17;1729103;83;21087;-40
2022/07/19 01:30:42;;;;;;;3.35;3.02;;;;;;;10.88;100.00;101346.41;1728995;82;21466;-40
2022/07/19 01:33:09;;;;;;;4.33;3.62;;;;;;;10.90;100.00;101351.59;1705875;83;20985;-40
2022/07/19 01:35:36;;;;;;;4.60;2.90;;;;;;;10.89;100.00;101352.45;1733724;82;21158;-40
2022/07/19 01:38:02;;;;;;;4.03;2.70;;;;;;;10.89;100.00;101347.28;1749043;82;20959;-40
2022/07/19 01:40:29;;;;;;;7.28;3.10;;;;;;;10.86;100.00;101352.45;1749114;82;20951;-40
2022/07/19 01:42:56;;;;;;;4.03;2.45;;;;;;;10.80;100.00;101348.19;1750585;81;21010;-40
2022/07/19 01:45:23;;;;;;;2.85;2.65;;;;;;;10.77;100.00;101341.73;1745453;81;20971;-40
2022/07/19 01:47:50;;;;;;;3.33;2.27;;;;;;;10.71;100.00;101340.44;1734196;82;22093;-40
2022/07/19 01:50:17;;;;;;;5.28;2.80;;;;;;;10.64;100.00;101345.66;1734151;82;20970;-40
2022/07/19 01:52:45;;;;;;;8.03;3.27;;;;;;;10.56;100.00;101343.55;1734392;82;21043;-40
2022/07/19 01:55:12;;;;;;;6.42;3.55;;;;;;;10.52;100.00;101347.02;1738392;81;21010;-40
2022/07/19 01:57:40;;;;;;;8.08;3.83;;;;;;;10.53;100.00;101344.86;1740849;81;21507;-41
2022/07/19 02:00:10;;;;;;;6.83;3.35;;;;;;;10.61;100.00;101348.27;1734612;81;21310;-40
2022/07/19 02:02:39;;;;;;;15.32;4.28;;;;;;;10.68;100.00;101351.69;1734087;82;20971;-40
2022/07/19 02:05:07;;;;;;;7.85;3.85;;;;;;;10.71;100.00;101352.09;1740234;81;21516;-40
2022/07/19 02:07:34;;;;;;;8.70;4.30;;;;;;;10.77;100.00;101354.68;1754570;81;20979;-40
2022/07/19 02:10:04;;;;;;;8.60;4.25;;;;;;;10.87;100.00;101357.63;1754653;81;20975;-40
2022/07/19 02:12:31;;;;;;;4.95;4.15;;;;;;;10.97;100.00;101356.27;1754520;81;21871;-41
2022/07/19 02:14:58;;;;;;;6.20;4.28;;;;;;;11.01;100.00;101356.26;1749476;81;20959;-40
2022/07/19 02:17:26;;;;;;;4.83;4.33;;;;;;;11.04;100.00;101360.58;1734418;81;20982;-40
2022/07/19 02:19:52;;;;;;;5.78;4.30;;;;;;;11.04;100.00;101356.23;1733964;82;20998;-40
2022/07/19 02:22:22;;;;;;;6.75;4.60;;;;;;;11.10;100.00;101359.66;1734677;82;20931;-40
2022/07/19 02:24:48;;;;;;;4.85;4.42;;;;;;;11.12;100.00;101366.56;1737337;81;21220;-40
2022/07/19 02:27:15;;;;;;;7.03;4.42;;;;;;;11.14;100.00;101358.34;1754433;81;20954;-40
2022/07/19 02:29:42;;;;;;;9.98;5.08;;;;;;;11.15;100.00;101363.95;1754563;80;20998;-41
2022/07/19 02:32:09;;;;;;;7.15;4.37;;;;;;;11.18;100.00;101363.92;1754488;81;20998;-40
2022/07/19 02:34:36;;;;;;;6.90;4.87;;;;;;;11.21;100.00;101363.90;1753342;81;21065;-40
2022/07/19 02:37:03;;;;;;;10.50;5.17;;;;;;;11.24;100.00;101366.92;1734078;81;21148;-40
2022/07/19 02:39:29;;;;;;;8.88;5.00;;;;;;;11.27;100.00;101369.94;1734029;82;21018;-40
2022/07/19 02:41:56;;;;;;;6.30;5.70;;;;;;;11.33;100.00;101372.48;1707247;82;20948;-40
2022/07/19 02:44:23;;;;;;;8.95;6.53;;;;;;;11.42;100.00;101376.74;1730014;81;20936;-42
2022/07/19 02:46:50;;;;;;;6.47;5.87;;;;;;;11.48;100.00;101377.53;1748283;82;20907;-40
2022/07/19 02:49:16;;;;;;;6.75;5.75;;;;;;;11.52;100.00;101373.66;1748949;82;21138;-40
2022/07/19 02:51:43;;;;;;;6.80;5.85;;;;;;;11.58;100.00;101368.41;1749028;82;20916;-40
2022/07/19 02:54:10;;;;;;;10.13;6.28;;;;;;;11.63;100.00;101370.52;1748841;82;20955;-40
2022/07/19 02:56:37;;;;;;;10.28;7.50;;;;;;;11.70;100.00;101371.34;1731647;82;20979;-40
2022/07/19 02:59:05;;;;;;;7.78;6.40;;;;;;;11.76;100.00;101371.28;1728838;83;20928;-40
2022/07/19 03:01:31;;;;;;;8.48;7.03;;;;;;;11.84;100.00;101378.54;1728813;82;22149;-40
2022/07/19 03:03:59;;;;;;;7.78;6.72;;;;;;;11.89;100.00;101381.98;1728875;83;20952;-40
2022/07/19 03:06:26;;;;;;;11.33;6.85;;;;;;;11.95;100.00;101381.50;1730114;82;21304;-40
2022/07/19 03:08:53;;;;;;;10.53;5.95;;;;;;;11.99;100.00;101381.42;1728672;82;20951;-40
2022/07/19 03:11:21;;;;;;;7.62;6.83;;;;;;;12.05;100.00;101380.55;1728940;83;20991;-40
2022/07/19 03:13:48;;;;;;;7.20;5.60;;;;;;;12.10;100.00;101387.00;1728916;82;21059;-40
2022/07/19 03:16:15;;;;;;;7.78;4.90;;;;;;;12.17;100.00;101385.63;1733409;81;20971;-40
2022/07/19 03:18:42;;;;;;;7.95;4.10;;;;;;;12.22;100.00;101380.38;1710500;83;20900;-40
2022/07/19 03:21:09;;;;;;;12.45;4.92;;;;;;;12.26;100.00;101380.79;1710450;83;20971;-40
2022/07/19 03:23:37;;;;;;;5.95;5.35;;;;;;;12.32;100.00;101382.44;1728980;82;20928;-40
2022/07/19 03:26:06;;;;;;;10.20;5.72;;;;;;;12.37;100.00;101385.83;1733927;82;21883;-40
2022/07/19 03:28:34;;;;;;;9.28;5.80;;;;;;;12.43;100.00;101386.21;1748854;80;20955;-40
2022/07/19 03:31:00;;;;;;;8.20;5.33;;;;;;;12.50;100.00;101388.73;1748930;82;20990;-40
2022/07/19 03:33:27;;;;;;;7.87;4.95;;;;;;;12.59;100.00;101386.47;1748993;82;20947;-40
2022/07/19 03:35:56;;;;;;;5.75;5.17;;;;;;;12.69;100.00;101388.52;1738411;82;21007;-40
2022/07/19 03:38:22;;;;;;;5.87;4.67;;;;;;;12.82;100.00;101384.02;1710257;83;21851;-40
2022/07/19 03:40:49;;;;;;;4.58;4.17;;;;;;;12.92;100.00;101379.11;1729014;81;20908;-40
2022/07/19 03:43:16;;;;;;;5.15;4.62;;;;;;;13.03;100.00;101383.32;1729299;82;20935;-40
2022/07/19 03:45:44;;;;;;;6.85;4.05;;;;;;;13.17;100.00;101387.87;1732967;82;20959;-41
2022/07/19 03:48:14;;;;;;;3.83;3.50;;;;;;;13.29;100.00;101391.19;1732176;82;21007;-40
2022/07/19 03:50:41;;;;;;;7.25;3.85;;;;;;;13.42;100.00;101391.86;1746682;82;21258;-41
2022/07/19 03:53:08;;;;;;;6.22;3.12;;;;;;;13.57;100.00;101386.89;1749586;82;21529;-41
2022/07/19 03:55:34;;;;;;;4.45;2.52;;;;;;;13.74;100.00;101384.84;1743212;81;20974;-41
2022/07/19 03:58:01;;;;;;;6.28;1.90;;;;;;;13.98;100.00;101385.30;1731758;82;20877;-40
2022/07/19 04:00:28;;;;;;;5.85;2.02;;;;;;;14.29;100.00;101388.66;1733221;82;20916;-40
2022/07/19 04:02:55;;;;;;;5.22;2.00;;;;;;;14.62;100.00;101392.78;1731718;82;21469;-40
2022/07/19 04:05:22;;;;;;;8.85;2.40;;;;;;;14.97;100.00;101389.48;1732073;82;21013;-40
2022/07/19 04:07:49;;;;;;;17.52;2.52;;;;;;;15.22;100.00;101391.11;1731821;82;20939;-40
2022/07/19 04:10:16;;;;;;;12.40;1.62;;;;;;;15.58;100.00;101391.58;1743071;82;20971;-40
2022/07/19 04:12:43;;;;;;;5.47;1.37;;;;;;;15.85;100.00;101389.16;1749705;82;21006;-40
2022/07/19 04:15:10;;;;;;;6.37;1.60;;;;;;;16.04;100.00;101391.74;1749558;82;21473;-40
2022/07/19 04:17:38;;;;;;;2.25;1.50;;;;;;;16.29;100.00;101391.05;1724310;82;20963;-40
2022/07/19 04:20:06;;;;;;;5.12;1.60;;;;;;;16.64;100.00;101385.29;1740114;82;20964;-41
2022/07/19 04:22:35;;;;;;;3.45;1.32;;;;;;;17.03;100.00;101384.61;1731907;82;20967;-41
2022/07/19 04:25:02;;;;;;;1.22;0.80;;;;;;;17.33;100.00;101380.65;1732137;82;21501;-41
2022/07/19 04:27:30;;;;;;;6.17;1.55;;;;;;;17.55;100.00;101378.17;1732163;82;21461;-42
2022/07/19 04:29:58;;;;;;;5.55;1.10;;;;;;;17.75;100.00;101380.59;1740226;82;20935;-42
2022/07/19 04:32:24;;;;;;;5.00;1.00;;;;;;;17.99;100.00;101385.41;1749481;82;20983;-41
2022/07/19 04:34:51;;;;;;;6.20;1.47;;;;;;;18.33;100.00;101386.89;1749697;82;21007;-42
2022/07/19 04:37:18;;;;;;;1.15;1.00;;;;;;;18.67;100.00;101389.56;1749757;82;21010;-42
2022/07/19 04:39:44;;;;;;;1.37;0.98;;;;;;;18.95;100.00;101387.19;1742781;82;21192;-41
2022/07/19 04:42:11;;;;;;;2.40;0.80;;;;;;;19.17;100.00;101387.69;1731900;82;20939;-42
2022/07/19 04:44:39;;;;;;;4.80;1.10;;;;;;;19.29;100.00;101394.66;1730102;82;20971;-42
2022/07/19 04:47:05;;;;;;;2.95;1.50;;;;;;;19.47;100.00;101399.16;1728799;82;20939;-42
2022/07/19 04:49:32;;;;;;;4.83;1.82;;;;;;;19.64;100.00;101400.25;1734108;82;20892;-42
2022/07/19 04:51:58;;;;;;;2.72;2.20;;;;;;;19.68;100.00;101388.22;1748776;82;21834;-42
2022/07/19 04:54:25;;;;;;;9.03;2.75;;;;;;;19.70;100.00;101397.80;1748939;82;20951;-42
2022/07/19 05:02:18;;;;;;;10.18;1.60;;;;;;;20.50;96.86;101392.19;1797723;79;22509;-41
2022/07/19 05:04:45;;;;;;;5.25;1.20;;;;;;;20.81;91.92;101386.84;1757416;81;20999;-41
2022/07/19 05:07:12;;;;;;;5.87;1.30;;;;;;;20.96;89.30;101391.84;1757615;81;21942;-41
2022/07/19 05:09:40;;;;;;;3.33;1.02;;;;;;;21.20;87.77;101393.78;1767480;80;21002;-41
2022/07/19 05:12:07;;;;;;;3.27;1.00;;;;;;;21.44;85.10;101391.31;1789061;80;20986;-41
2022/07/19 05:14:34;;;;;;;6.72;1.00;;;;;;;21.66;84.36;101385.87;1791684;80;21002;-41
2022/07/19 05:17:02;;;;;;;0.90;0.65;;;;;;;21.95;82.05;101388.31;1789093;80;21475;-41
2022/07/19 05:19:29;;;;;;;4.80;0.88;;;;;;;22.07;71.91;101388.14;1762929;80;21116;-41
2022/07/19 05:21:56;;;;;;;4.53;0.68;;;;;;;22.13;72.81;101386.98;1757189;81;20963;-41
2022/07/19 05:24:22;;;;;;;5.08;0.82;;;;;;;22.35;73.04;101389.31;1757337;81;20966;-41
2022/07/19 05:26:50;;;;;;;0.80;0.80;;;;;;;22.61;73.64;101387.56;1757283;81;21434;-41
2022/07/19 05:29:17;;;;;;;1.32;0.60;;;;;;;22.85;72.98;101384.51;1755323;80;20967;-41
2022/07/19 05:31:44;;;;;;;0.60;0.60;;;;;;;23.01;71.45;101388.00;1749034;82;21251;-41
2022/07/19 05:34:11;;;;;;;2.70;0.55;;;;;;;23.24;71.30;101388.00;1749089;82;20928;-41
2022/07/19 05:36:38;;;;;;;1.22;0.50;;;;;;;23.50;66.45;101388.30;1748705;82;20900;-41
2022/07/19 05:39:04;;;;;;;3.33;0.60;;;;;;;23.47;63.31;101387.17;1737657;82;20968;-41
2022/07/19 05:41:31;;;;;;;4.42;0.60;;;;;;;23.31;61.21;101386.34;1719332;83;20955;-41
2022/07/19 05:43:58;;;;;;;4.42;0.62;;;;;;;23.23;61.76;101392.90;1739047;82;21089;-41
2022/07/19 05:46:25;;;;;;;1.98;0.60;;;;;;;23.37;61.74;101388.66;1719338;82;20971;-41
2022/07/19 05:48:51;;;;;;;10.70;0.70;;;;;;;23.71;63.33;101377.41;1721051;82;21139;-41
2022/07/19 05:51:18;;;;;;;3.40;0.50;;;;;;;24.06;63.99;101385.02;1743785;82;21019;-41
2022/07/19 05:53:46;;;;;;;1.52;0.60;;;;;;;24.25;62.41;101382.58;1748996;82;20967;-41
2022/07/19 05:56:13;;;;;;;4.85;0.60;;;;;;;24.42;61.47;101382.84;1748930;82;21245;-41
2022/07/19 05:58:40;;;;;;;3.02;0.62;;;;;;;24.50;59.03;101387.66;1748997;82;20988;-41
2022/07/19 06:01:19;;;;;;;4.53;0.60;;;;;;;24.55;58.47;101381.59;1749188;81;20971;-41
2022/07/19 06:03:53;;;;;;;3.08;0.42;;;;;;;24.49;58.96;101384.64;1749728;81;20968;-41
2022/07/19 06:06:21;;;;;;;0.90;0.40;;;;;;;24.34;57.47;101376.70;1750199;82;20932;-42
2022/07/19 06:08:49;;;;;;;4.58;0.60;;;;;;;24.31;57.77;101387.48;1734155;81;21389;-42
2022/07/19 06:11:16;;;;;;;2.45;0.65;;;;;;;24.19;57.88;101384.29;1747032;82;20912;-41
2022/07/19 06:13:45;;;;;;;1.15;0.62;;;;;;;24.22;57.09;101390.70;1741723;82;20956;-41
2022/07/19 06:16:13;;;;;;;7.65;0.85;;;;;;;24.16;58.46;101391.09;1719481;83;20968;-42
2022/07/19 06:18:40;;;;;;;7.70;0.75;;;;;;;24.21;58.34;101383.23;1719611;83;21031;-42
2022/07/19 06:21:10;;;;;;;7.53;0.72;;;;;;;24.27;58.80;101385.98;1719121;83;21189;-41
2022/07/19 06:23:38;;;;;;;6.58;0.70;;;;;;;24.29;58.77;101385.41;1719392;83;21015;-41
2022/07/19 06:26:05;;;;;;;3.52;0.60;;;;;;;24.27;57.62;101383.33;1727029;82;20966;-42
2022/07/19 06:28:32;;;;;;;8.18;0.90;;;;;;;24.27;57.67;101383.33;1719325;83;20974;-42
2022/07/19 06:31:00;;;;;;;3.92;0.40;;;;;;;24.33;56.25;101385.59;1719377;82;21001;-42
2022/07/19 06:33:27;;;;;;;2.80;0.50;;;;;;;24.24;54.17;101382.20;1736132;80;21157;-41
2022/07/19 06:35:53;;;;;;;1.60;0.50;;;;;;;24.26;55.34;101388.25;1749135;82;20952;-41
2022/07/19 06:38:21;;;;;;;1.77;0.50;;;;;;;24.23;54.68;101385.30;1749085;82;21098;-42
2022/07/19 06:40:47;;;;;;;9.68;0.78;;;;;;;24.33;54.79;101384.27;1748926;81;20944;-42
2022/07/19 06:43:14;;;;;;;1.32;0.70;;;;;;;24.42;54.75;101382.02;1749218;82;20893;-42
2022/07/19 06:45:40;;;;;;;7.55;0.90;;;;;;;24.41;53.60;101378.99;1741170;81;21245;-42
2022/07/19 06:48:07;;;;;;;15.60;1.22;;;;;;;24.35;53.99;101379.73;1737084;82;21085;-42
2022/07/19 06:50:34;;;;;;;2.98;0.50;;;;;;;24.19;53.28;101389.58;1738770;82;21523;-43
2022/07/19 06:53:01;;;;;;;2.75;0.50;;;;;;;24.06;51.37;101386.34;1719447;82;20979;-42
2022/07/19 06:55:28;;;;;;;3.40;0.50;;;;;;;24.04;52.16;101381.63;1723519;82;20971;-42
2022/07/19 06:57:55;;;;;;;4.80;0.42;;;;;;;24.16;51.08;101388.45;1748296;82;21241;-42
2022/07/19 07:00:21;;;;;;;15.93;1.37;;;;;;;24.22;53.16;101384.92;1748782;82;20928;-42
2022/07/19 07:02:49;;;;;;;10.35;1.40;;;;;;;24.29;51.83;101386.73;1749260;81;21011;-42
2022/07/19 07:05:15;;;;;;;2.92;0.80;;;;;;;24.29;51.27;101384.09;1740174;81;21004;-42
2022/07/19 07:07:42;;;;;;;3.67;0.50;;;;;;;24.30;50.62;101388.42;1735926;82;21501;-42
2022/07/19 07:10:09;;;;;;;6.53;0.50;;;;;;;24.18;51.96;101382.10;1734042;82;21036;-42
2022/07/19 07:12:36;;;;;;;16.87;1.20;;;;;;;24.13;51.74;101384.67;1727266;81;21007;-42
2022/07/19 07:15:06;;;;;;;35.10;2.50;;;;;;;24.24;51.56;101380.88;1722959;82;21639;-42
2022/07/19 07:17:33;;;;;;;11.05;0.80;;;;;;;24.30;51.25;101379.66;1736337;82;20976;-42
2022/07/19 07:20:02;;;;;;;3.35;0.60;;;;;;;24.35;50.78;101382.37;1742726;82;20904;-42
2022/07/19 07:22:29;;;;;;;2.17;0.40;;;;;;;24.50;50.96;101381.05;1736524;82;21086;-42
2022/07/19 07:24:55;;;;;;;7.50;0.80;;;;;;;24.64;49.20;101379.71;1727947;82;20932;-41
2022/07/19 07:27:25;;;;;;;36.30;2.17;;;;;;;24.76;47.36;101379.89;1720349;82;21488;-41
2022/07/19 07:29:52;;;;;;;3.22;0.40;;;;;;;24.77;49.68;101376.30;1733023;82;21536;-42
2022/07/19 07:32:19;;;;;;;9.38;0.55;;;;;;;24.90;48.36;101374.57;1742577;82;21011;-41
2022/07/19 07:34:46;;;;;;;7.70;1.10;;;;;;;25.08;47.90;101372.97;1720874;82;22106;-41
2022/07/19 07:37:13;;;;;;;10.45;0.75;;;;;;;25.31;47.81;101372.80;1725440;82;21003;-42
2022/07/19 07:39:40;;;;;;;6.15;0.98;;;;;;;25.48;49.85;101380.09;1721241;82;21018;-42
2022/07/19 07:42:07;;;;;;;5.20;0.78;;;;;;;25.67;48.04;101379.72;1735836;82;21565;-41
2022/07/19 07:44:34;;;;;;;10.65;1.12;;;;;;;25.71;46.88;101373.25;1721379;82;20968;-42
2022/07/19 07:47:02;;;;;;;7.17;1.00;;;;;;;25.80;47.93;101371.28;1719025;83;21241;-41
2022/07/19 07:49:30;;;;;;;12.37;0.60;;;;;;;26.01;47.65;101371.22;1719163;83;21000;-42
2022/07/19 07:51:57;;;;;;;6.87;0.70;;;;;;;26.25;47.33;101371.34;1719101;83;20984;-42
2022/07/19 07:54:25;;;;;;;2.20;0.40;;;;;;;26.49;45.79;101370.55;1718905;82;20995;-42
2022/07/19 07:56:52;;;;;;;1.30;0.47;;;;;;;26.57;42.68;101380.13;1719216;83;20967;-42
2022/07/19 07:59:20;;;;;;;1.15;0.40;;;;;;;26.27;43.56;101373.41;1721278;82;21042;-42
2022/07/19 08:01:46;;;;;;;1.07;0.40;;;;;;;26.04;39.23;101373.19;1717212;83;20980;-42
2022/07/19 08:04:13;;;;;;;0.98;0.53;;;;;;;25.88;40.80;101372.08;1713680;83;21011;-42
2022/07/19 08:06:40;;;;;;;4.40;0.80;;;;;;;25.80;41.47;101373.10;1713785;83;20998;-42
2022/07/19 08:09:07;;;;;;;1.10;0.42;;;;;;;25.67;42.86;101372.60;1715787;82;21373;-42
2022/07/19 08:11:33;;;;;;;2.47;0.30;;;;;;;25.64;42.88;101364.00;1715462;82;21129;-42
2022/07/19 08:14:01;;;;;;;1.30;0.50;;;;;;;25.81;43.93;101364.19;1743402;82;21557;-42
2022/07/19 08:16:29;;;;;;;1.45;0.37;;;;;;;26.08;42.74;101362.73;1743625;82;20951;-42
2022/07/19 08:18:55;;;;;;;0.40;0.40;;;;;;;26.09;40.96;101365.75;1743164;81;21011;-42
2022/07/19 08:21:23;;;;;;;5.67;0.30;;;;;;;26.06;42.16;101355.36;1743376;82;21007;-42
2022/07/19 08:23:52;;;;;;;0.90;0.40;;;;;;;26.07;44.64;101366.34;1743439;81;21128;-42
2022/07/19 08:26:21;;;;;;;1.75;0.40;;;;;;;26.12;43.92;101360.72;1743555;82;21557;-42
2022/07/19 08:28:48;;;;;;;4.00;0.40;;;;;;;26.14;44.33;101351.31;1743229;82;20953;-42
2022/07/19 08:31:15;;;;;;;2.35;0.45;;;;;;;26.45;44.86;101358.47;1743208;81;20980;-42
2022/07/19 08:33:44;;;;;;;1.95;0.50;;;;;;;26.75;41.22;101357.20;1743600;82;21514;-42
2022/07/19 08:36:11;;;;;;;0.62;0.50;;;;;;;26.72;41.98;101354.77;1743436;82;21135;-42
2022/07/19 08:38:39;;;;;;;5.05;0.42;;;;;;;26.80;44.07;101355.05;1715437;82;20980;-42
2022/07/19 08:41:06;;;;;;;15.10;1.02;;;;;;;26.92;43.33;101352.86;1713778;83;21004;-42
2022/07/19 08:43:33;;;;;;;25.00;1.10;;;;;;;27.27;43.71;101342.34;1713568;83;21043;-42
2022/07/19 08:46:01;;;;;;;0.72;0.40;;;;;;;27.40;43.51;101343.09;1713888;83;20924;-42
2022/07/19 08:48:34;;;;;;;2.92;0.50;;;;;;;27.54;41.81;101332.30;1715639;82;21080;-42
2022/07/19 08:51:05;;;;;;;6.80;0.70;;;;;;;27.59;41.91;101337.27;1713664;83;21545;-42
2022/07/19 08:53:33;;;;;;;0.80;0.50;;;;;;;27.30;42.32;101342.11;1713708;83;20987;-42
2022/07/19 08:56:01;;;;;;;2.40;0.40;;;;;;;27.28;41.20;101340.89;1713755;83;20921;-42
2022/07/19 08:58:27;;;;;;;1.40;0.30;;;;;;;27.28;40.55;101337.40;1715631;82;21043;-42
2022/07/19 09:00:54;;;;;;;0.30;0.30;;;;;;;27.25;41.30;101331.36;1713439;83;22127;-41
2022/07/19 09:03:21;;;;;;;0.50;0.50;;;;;;;27.31;42.07;101327.86;1713608;83;20999;-41
2022/07/19 09:06:03;;;;;;;2.75;0.45;;;;;;;27.25;41.04;101326.05;1713950;83;21558;-41
2022/07/19 09:08:30;;;;;;;10.55;0.82;;;;;;;27.32;40.85;101322.91;1730144;82;21468;-41
2022/07/19 09:11:16;;;;;;;4.40;0.60;;;;;;;27.79;41.94;101315.77;1729339;81;20939;-42
2022/07/19 09:13:46;;;;;;;6.72;0.50;;;;;;;27.98;38.32;101314.31;1713499;83;21150;-41
2022/07/19 09:16:14;;;;;;;0.40;0.40;;;;;;;27.91;39.88;101321.06;1662300;83;20975;-42
2022/07/19 09:18:41;;;;;;;0.65;0.40;;;;;;;28.02;37.91;101319.75;1713679;83;21036;-41
2022/07/19 09:21:08;;;;;;;1.80;0.42;;;;;;;27.66;40.98;101321.19;1715260;82;21941;-41
2022/07/19 09:23:37;;;;;;;1.37;0.35;;;;;;;27.57;37.67;101321.05;1713508;83;20928;-42
2022/07/19 09:26:05;;;;;;;5.85;0.40;;;;;;;27.42;38.27;101311.09;1681473;83;21293;-41
2022/07/19 09:28:36;;;;;;;7.70;0.78;;;;;;;27.30;39.90;101310.22;1716001;82;20952;-42
2022/07/19 09:31:04;;;;;;;6.03;0.80;;;;;;;27.44;41.33;101314.02;1724562;82;20948;-43
2022/07/19 09:33:32;;;;;;;2.37;0.50;;;;;;;27.64;40.34;101303.66;1743021;81;20976;-40
2022/07/19 09:36:02;;;;;;;0.90;0.40;;;;;;;27.58;40.32;101302.81;1743228;81;20956;-41
2022/07/19 09:38:34;;;;;;;1.17;0.47;;;;;;;27.46;41.00;101304.11;1743404;82;20944;-41
2022/07/19 09:41:13;;;;;;;4.22;0.60;;;;;;;27.22;41.29;101298.37;1742975;82;20901;-40
2022/07/19 09:44:02;;;;;;;6.92;0.40;;;;;;;27.19;41.75;101302.60;1743299;82;20963;-41
2022/07/19 09:46:39;;;;;;;2.98;0.40;;;;;;;27.47;42.87;101296.97;1743164;82;20968;-41
2022/07/19 09:49:14;;;;;;;1.10;0.40;;;;;;;27.86;41.50;101293.52;1743236;81;20889;-41
2022/07/19 09:51:43;;;;;;;9.10;0.75;;;;;;;28.28;39.57;101290.70;1743237;82;21147;-41
2022/07/19 09:54:16;;;;;;;12.05;0.93;;;;;;;28.71;39.38;101283.70;1745166;80;20992;-41
2022/07/19 09:56:44;;;;;;;4.83;0.62;;;;;;;29.11;38.58;101289.22;1743101;81;21474;-41
2022/07/19 09:59:10;;;;;;;1.62;0.37;;;;;;;29.44;40.64;101280.31;1742959;81;20984;-41
2022/07/19 10:01:38;;;;;;;5.40;0.50;;;;;;;29.72;37.67;101282.77;1743148;81;20932;-42
2022/07/19 10:04:11;;;;;;;3.20;0.50;;;;;;;29.52;34.68;101287.16;1729219;82;21243;-41
2022/07/19 10:06:39;;;;;;;26.33;1.90;;;;;;;28.97;35.91;101290.86;1743848;82;20940;-41
2022/07/19 10:09:09;;;;;;;11.20;0.85;;;;;;;28.53;36.44;101289.56;1749018;81;20912;-41
2022/07/19 10:11:36;;;;;;;6.78;1.05;;;;;;;27.78;38.62;101291.47;1744230;82;20975;-41
2022/07/19 10:14:03;;;;;;;7.75;1.17;;;;;;;27.25;39.77;101287.98;1719333;82;20976;-41
2022/07/19 10:16:55;;;;;;;5.47;0.50;;;;;;;26.77;40.47;101291.05;1719107;82;21125;-41
2022/07/19 10:19:39;;;;;;;4.42;0.50;;;;;;;26.44;41.52;101294.41;1719139;82;20988;-41
2022/07/19 10:22:13;;;;;;;2.52;0.30;;;;;;;26.05;41.51;101293.99;1719271;83;20956;-41
2022/07/19 10:24:53;;;;;;;0.65;0.50;;;;;;;25.84;42.15;101284.44;1719186;82;21612;-41
2022/07/19 10:27:32;;;;;;;11.50;0.70;;;;;;;25.65;42.16;101284.89;1718994;83;21492;-43
2022/07/19 10:30:14;;;;;;;1.55;0.50;;;;;;;25.80;45.15;101281.14;1728156;82;21069;-41
2022/07/19 10:32:43;;;;;;;10.43;0.53;;;;;;;26.33;44.62;101273.47;1749089;81;20925;-43
2022/07/19 10:35:22;;;;;;;17.17;1.37;;;;;;;27.00;40.79;101264.61;1748915;81;21675;-41
2022/07/19 10:38:06;;;;;;;19.12;1.55;;;;;;;27.55;42.95;101261.38;1749179;82;20933;-41
2022/07/19 10:40:47;;;;;;;9.75;0.90;;;;;;;28.17;41.27;101257.02;1746878;82;21547;-42
2022/07/19 10:43:23;;;;;;;8.48;0.70;;;;;;;28.60;38.46;101256.63;1719283;83;21144;-41
2022/07/19 10:46:04;;;;;;;11.80;1.65;;;;;;;28.73;35.69;101257.78;1719274;83;20940;-43
2022/07/19 10:48:49;;;;;;;2.25;0.60;;;;;;;28.48;36.79;101256.66;1719250;82;21314;-41
2022/07/19 10:51:33;;;;;;;1.13;0.60;;;;;;;28.09;36.47;101255.77;1719992;82;20952;-41
2022/07/19 10:54:06;;;;;;;5.45;0.60;;;;;;;28.04;38.83;101255.30;1720061;82;21655;-41
2022/07/19 10:56:41;;;;;;;1.47;0.30;;;;;;;28.45;37.31;101253.42;1719427;83;21236;-41
2022/07/19 10:59:11;;;;;;;3.12;0.35;;;;;;;28.60;35.08;101251.30;1719926;82;20936;-42
2022/07/19 11:01:43;;;;;;;5.25;0.55;;;;;;;28.70;36.01;101244.73;1748530;81;21485;-43
2022/07/19 11:04:25;;;;;;;10.10;0.80;;;;;;;28.71;38.10;101246.42;1739033;82;20995;-42
2022/07/19 11:07:13;;;;;;;2.50;0.60;;;;;;;28.62;36.48;101246.70;1743207;82;20936;-42
2022/07/19 11:09:48;;;;;;;3.95;0.50;;;;;;;28.42;38.49;101250.98;1727033;82;21126;-43
2022/07/19 11:12:33;;;;;;;0.93;0.50;;;;;;;28.02;36.54;101252.39;1713718;82;20934;-42
2022/07/19 11:15:04;;;;;;;1.67;0.40;;;;;;;27.60;38.24;101240.59;1715669;82;20971;-41
2022/07/19 11:17:31;;;;;;;0.40;0.40;;;;;;;27.27;37.15;101242.20;1740061;82;20981;-42
2022/07/19 11:20:10;;;;;;;4.60;0.60;;;;;;;27.05;38.62;101239.04;1720343;81;21024;-42
2022/07/19 11:22:43;;;;;;;0.72;0.40;;;;;;;27.07;37.95;101241.09;1713756;83;21229;-42
2022/07/19 11:25:11;;;;;;;0.78;0.50;;;;;;;27.06;38.41;101236.75;1729255;82;21454;-42
2022/07/19 11:27:43;;;;;;;0.40;0.40;;;;;;;27.11;36.90;101234.58;1743273;82;21613;-42
2022/07/19 11:30:11;;;;;;;0.30;0.30;;;;;;;27.37;37.78;101236.56;1742782;82;20988;-42
2022/07/19 11:32:41;;;;;;;0.75;0.40;;;;;;;27.69;37.85;101237.70;1714050;82;21471;-42
2022/07/19 11:35:08;;;;;;;1.20;0.30;;;;;;;27.73;36.07;101229.83;1740975;81;21745;-42